createdAt,value
2022-07-30T00:01:49.465Z,2.70
2022-07-30T00:04:17.151Z,2.88
2022-07-30T00:06:44.891Z,3.00
2022-07-30T00:09:12.633Z,3.30
2022-07-30T00:11:40.279Z,2.88
2022-07-30T00:14:09.261Z,3.03
2022-07-30T00:16:37.174Z,3.00
2022-07-30T00:19:05.184Z,2.88
2022-07-30T00:21:38.621Z,3.13
2022-07-30T00:24:07.211Z,2.85
2022-07-30T00:26:35.238Z,3.35
2022-07-30T00:29:03.131Z,3.00
2022-07-30T00:31:32.494Z,2.92
2022-07-30T00:34:00.374Z,2.70
2022-07-30T00:36:28.493Z,2.60
2022-07-30T00:38:56.371Z,2.47
2022-07-30T00:41:24.710Z,2.50
2022-07-30T00:43:52.933Z,2.45
2022-07-30T00:46:20.916Z,2.60
2022-07-30T00:48:50.477Z,2.97
2022-07-30T00:51:18.191Z,2.60
2022-07-30T00:53:45.899Z,2.70
2022-07-30T00:56:13.753Z,2.80
2022-07-30T00:58:41.472Z,2.70
2022-07-30T01:01:09.386Z,2.40
2022-07-30T01:03:38.517Z,3.05
2022-07-30T01:06:14.405Z,2.70
2022-07-30T01:08:43.255Z,2.78
2022-07-30T01:11:11.118Z,2.97
2022-07-30T01:13:43.479Z,3.28
2022-07-30T01:16:11.724Z,2.55
2022-07-30T01:18:59.446Z,2.92
2022-07-30T01:21:35.724Z,3.00
2022-07-30T01:24:17.956Z,3.03
2022-07-30T01:26:48.190Z,3.78
2022-07-30T01:29:17.099Z,3.08
2022-07-30T01:31:47.328Z,3.00
2022-07-30T01:34:17.341Z,4.05
2022-07-30T01:36:46.952Z,7.70
2022-07-30T01:39:18.617Z,2.70
2022-07-30T01:41:50.233Z,3.97
2022-07-30T01:44:23.971Z,3.60
2022-07-30T01:46:54.114Z,3.65
2022-07-30T01:49:24.920Z,4.65
2022-07-30T01:51:53.501Z,5.20
2022-07-30T01:54:22.887Z,4.50
2022-07-30T01:56:55.035Z,2.67
2022-07-30T01:59:26.043Z,3.75
2022-07-30T02:01:54.070Z,2.90
2022-07-30T02:04:21.908Z,3.00
2022-07-30T02:07:00.990Z,3.05
2022-07-30T02:09:34.227Z,2.97
2022-07-30T02:12:22.966Z,3.08
2022-07-30T02:14:55.104Z,3.10
2022-07-30T02:17:30.326Z,2.88
2022-07-30T02:20:09.287Z,3.13
2022-07-30T02:22:40.747Z,2.80
2022-07-30T02:25:11.452Z,2.70
2022-07-30T02:27:44.328Z,2.63
2022-07-30T02:30:13.249Z,2.50
2022-07-30T02:32:44.659Z,2.83
2022-07-30T02:35:18.238Z,2.80
2022-07-30T02:37:47.940Z,2.85
2022-07-30T02:40:17.239Z,2.67
2022-07-30T02:42:50.291Z,3.58
2022-07-30T02:45:22.475Z,2.78
2022-07-30T02:47:54.483Z,3.00
2022-07-30T02:50:24.464Z,2.88
2022-07-30T02:52:54.699Z,2.88
2022-07-30T02:55:23.723Z,2.90
2022-07-30T02:57:54.609Z,2.58
2022-07-30T03:00:23.962Z,2.75
2022-07-30T03:02:56.592Z,2.90
2022-07-30T03:05:26.011Z,2.70
2022-07-30T03:07:55.959Z,2.50
2022-07-30T03:10:25.250Z,2.80
2022-07-30T03:12:55.417Z,2.60
2022-07-30T03:15:23.407Z,2.50
2022-07-30T03:17:55.582Z,3.30
2022-07-30T03:20:28.116Z,3.63
2022-07-30T03:22:58.270Z,2.53
2022-07-30T03:25:28.073Z,3.03
2022-07-30T03:27:59.242Z,3.20
2022-07-30T03:30:29.152Z,2.80
2022-07-30T03:32:57.655Z,2.67
2022-07-30T03:35:26.464Z,2.70
2022-07-30T03:37:56.873Z,3.30
2022-07-30T03:40:25.421Z,2.80
2022-07-30T03:42:53.808Z,2.63
2022-07-30T03:45:26.458Z,2.80
2022-07-30T03:47:59.589Z,2.80
2022-07-30T03:50:28.888Z,2.58
2022-07-30T03:52:56.782Z,2.88
2022-07-30T03:55:25.758Z,2.80
2022-07-30T03:58:12.810Z,3.10
2022-07-30T04:00:42.552Z,2.85
2022-07-30T04:03:11.717Z,2.63
2022-07-30T04:05:50.521Z,3.35
2022-07-30T04:08:18.271Z,3.00
2022-07-30T04:10:46.226Z,2.80
2022-07-30T04:13:22.919Z,2.72
2022-07-30T04:16:37.503Z,4.05
2022-07-30T04:18:51.398Z,2.78
2022-07-30T04:21:21.984Z,3.25
2022-07-30T04:24:02.991Z,2.80
2022-07-30T04:26:36.690Z,3.35
2022-07-30T04:29:07.044Z,3.60
2022-07-30T04:31:39.830Z,2.53
2022-07-30T04:34:28.820Z,4.00
2022-07-30T04:36:57.280Z,10.45
2022-07-30T04:39:26.105Z,2.83
2022-07-30T04:41:54.047Z,4.38
2022-07-30T04:44:36.228Z,3.60
2022-07-30T04:47:26.310Z,3.33
2022-07-30T04:50:17.943Z,2.70
2022-07-30T04:52:47.957Z,2.40
2022-07-30T04:55:23.301Z,2.60
2022-07-30T04:57:54.654Z,3.08
2022-07-30T05:00:23.350Z,3.20
2022-07-30T05:02:54.410Z,4.10
2022-07-30T05:05:23.934Z,2.70
2022-07-30T05:07:52.747Z,3.65
2022-07-30T05:10:20.816Z,3.17
2022-07-30T05:12:48.615Z,2.42
2022-07-30T05:15:18.663Z,2.50
2022-07-30T05:17:46.873Z,2.58
2022-07-30T05:20:16.505Z,2.67
2022-07-30T05:23:10.790Z,2.58
2022-07-30T05:25:40.574Z,2.85
2022-07-30T05:28:30.448Z,4.45
2022-07-30T05:31:02.081Z,2.95
2022-07-30T05:33:38.854Z,4.35
2022-07-30T05:36:12.695Z,2.85
2022-07-30T05:38:41.561Z,2.28
2022-07-30T05:41:33.309Z,2.45
2022-07-30T05:44:19.664Z,2.65
2022-07-30T05:46:50.170Z,2.42
2022-07-30T05:49:18.019Z,2.42
2022-07-30T05:51:47.537Z,2.47
2022-07-30T05:54:18.169Z,2.80
2022-07-30T05:57:05.225Z,2.50
2022-07-30T05:59:35.273Z,2.72
2022-07-30T06:02:10.751Z,3.03
2022-07-30T06:04:58.919Z,2.70
2022-07-30T06:07:28.536Z,2.42
2022-07-30T06:10:00.335Z,2.38
2022-07-30T06:12:29.887Z,2.60
2022-07-30T06:14:59.003Z,2.55
2022-07-30T06:17:30.862Z,2.60
2022-07-30T06:20:16.704Z,2.38
2022-07-30T06:23:00.152Z,2.60
2022-07-30T06:25:39.341Z,2.53
2022-07-30T06:28:34.679Z,2.53
2022-07-30T06:30:57.132Z,2.70
2022-07-30T06:33:27.669Z,2.58
2022-07-30T06:35:55.601Z,2.70
2022-07-30T06:38:29.100Z,2.40
2022-07-30T06:41:04.541Z,2.67
2022-07-30T06:43:46.055Z,2.50
2022-07-30T06:46:30.627Z,2.63
2022-07-30T06:48:59.059Z,2.92
2022-07-30T06:51:30.534Z,2.97
2022-07-30T06:54:00.513Z,2.85
2022-07-30T06:56:51.017Z,2.80
2022-07-30T06:59:19.620Z,2.63
2022-07-30T07:02:11.176Z,2.80
2022-07-30T07:04:59.865Z,3.03
2022-07-30T07:07:41.323Z,2.90
2022-07-30T07:10:13.081Z,2.85
2022-07-30T07:12:46.635Z,2.80
2022-07-30T07:15:17.611Z,2.53
2022-07-30T07:17:45.397Z,2.92
2022-07-30T07:20:33.210Z,2.80
2022-07-30T07:23:09.320Z,3.20
2022-07-30T07:25:42.310Z,3.22
2022-07-30T07:28:13.415Z,3.65
2022-07-30T07:30:44.740Z,2.95
2022-07-30T07:33:17.201Z,2.72
2022-07-30T07:35:49.065Z,3.22
2022-07-30T07:38:22.305Z,3.63
2022-07-30T07:40:52.723Z,3.85
2022-07-30T07:43:20.530Z,3.42
2022-07-30T07:45:48.239Z,3.20
2022-07-30T07:48:16.194Z,4.30
2022-07-30T07:50:55.001Z,5.30
2022-07-30T07:53:28.047Z,3.67
2022-07-30T07:55:58.808Z,4.72
2022-07-30T07:58:27.127Z,3.70
2022-07-30T08:00:58.930Z,4.35
2022-07-30T08:03:46.714Z,3.80
2022-07-30T08:06:32.936Z,4.18
2022-07-30T08:09:19.393Z,4.60
2022-07-30T08:12:05.965Z,4.72
2022-07-30T08:14:56.303Z,4.03
2022-07-30T08:17:43.610Z,4.55
2022-07-30T08:20:16.763Z,4.25
2022-07-30T08:22:44.740Z,5.95
2022-07-30T08:25:22.220Z,5.38
2022-07-30T08:27:54.320Z,5.18
2022-07-30T08:30:23.909Z,4.38
2022-07-30T08:32:51.708Z,4.82
2022-07-30T08:35:20.086Z,4.32
2022-07-30T08:37:47.747Z,4.32
2022-07-30T08:40:19.494Z,3.75
2022-07-30T08:42:56.148Z,3.95
2022-07-30T08:45:34.798Z,3.85
2022-07-30T08:48:32.733Z,4.40
2022-07-30T08:51:00.840Z,3.92
2022-07-30T08:53:35.090Z,3.92
2022-07-30T08:56:05.438Z,3.72
2022-07-30T08:58:35.941Z,8.48
2022-07-30T09:01:08.200Z,15.07
2022-07-30T09:03:44.514Z,12.25
2022-07-30T09:06:21.415Z,5.38
2022-07-30T09:08:49.299Z,3.50
2022-07-30T09:11:18.310Z,5.30
2022-07-30T09:13:48.409Z,6.47
2022-07-30T09:16:21.513Z,5.50
2022-07-30T09:18:50.258Z,7.10
2022-07-30T09:21:22.197Z,4.22
2022-07-30T09:23:59.420Z,4.82
2022-07-30T09:27:05.151Z,4.32
2022-07-30T09:29:59.461Z,6.25
2022-07-30T09:32:50.845Z,4.55
2022-07-30T09:35:37.161Z,4.82
2022-07-30T09:38:27.881Z,4.95
2022-07-30T09:41:29.338Z,4.65
2022-07-30T09:44:23.862Z,6.13
2022-07-30T09:46:53.367Z,4.93
2022-07-30T09:49:32.871Z,4.80
2022-07-30T09:52:00.967Z,4.80
2022-07-30T09:54:51.103Z,4.88
2022-07-30T09:57:25.835Z,6.00
2022-07-30T09:59:57.584Z,5.50
2022-07-30T10:02:32.824Z,4.72
2022-07-30T10:05:20.543Z,4.15
2022-07-30T10:07:52.452Z,4.20
2022-07-30T10:10:25.315Z,4.18
2022-07-30T10:12:57.921Z,3.35
2022-07-30T10:15:29.524Z,3.90
2022-07-30T10:17:59.999Z,4.20
2022-07-30T10:20:47.127Z,4.63
2022-07-30T10:23:50.805Z,4.05
2022-07-30T10:26:38.105Z,3.97
2022-07-30T10:29:33.835Z,4.32
2022-07-30T10:32:02.628Z,4.25
2022-07-30T10:34:34.475Z,3.90
2022-07-30T10:37:07.418Z,4.05
2022-07-30T10:39:38.465Z,4.07
2022-07-30T10:42:17.991Z,6.05
2022-07-30T10:45:04.172Z,4.28
2022-07-30T10:47:40.536Z,4.43
2022-07-30T10:50:22.437Z,3.75
2022-07-30T10:52:52.677Z,3.78
2022-07-30T10:55:37.218Z,3.88
2022-07-30T10:58:08.565Z,3.90
2022-07-30T11:00:58.424Z,4.20
2022-07-30T11:03:38.755Z,3.35
2022-07-30T11:06:35.578Z,3.45
2022-07-30T11:09:36.405Z,3.20
2022-07-30T11:12:12.745Z,3.15
2022-07-30T11:15:06.838Z,3.40
2022-07-30T11:18:04.305Z,3.38
2022-07-30T11:20:34.252Z,3.63
2022-07-30T11:23:39.074Z,3.53
2022-07-30T11:26:07.727Z,3.30
2022-07-30T11:28:49.190Z,3.20
2022-07-30T11:31:55.190Z,3.63
2022-07-30T11:34:30.903Z,3.10
2022-07-30T11:37:18.601Z,3.10
2022-07-30T11:40:13.049Z,3.20
2022-07-30T11:42:43.529Z,2.60
2022-07-30T11:45:26.809Z,2.80
2022-07-30T11:47:57.352Z,3.33
2022-07-30T11:50:27.620Z,4.45
2022-07-30T11:52:59.049Z,3.28
2022-07-30T11:55:30.228Z,2.75
2022-07-30T11:57:58.924Z,3.80
2022-07-30T12:00:27.069Z,3.08
2022-07-30T12:02:54.750Z,2.67
2022-07-30T12:05:27.341Z,5.20
2022-07-30T12:07:59.894Z,3.35
2022-07-30T12:10:27.941Z,3.08
2022-07-30T12:13:08.521Z,3.50
2022-07-30T12:15:38.302Z,2.85
2022-07-30T12:18:25.308Z,2.55
2022-07-30T12:20:59.623Z,2.80
2022-07-30T12:23:29.626Z,2.75
2022-07-30T12:25:58.489Z,2.95
2022-07-30T12:28:28.132Z,3.30
2022-07-30T12:30:57.224Z,3.40
2022-07-30T12:33:25.964Z,3.22
2022-07-30T12:35:55.402Z,2.67
2022-07-30T12:38:24.772Z,2.67
2022-07-30T12:40:56.414Z,2.75
2022-07-30T12:43:43.284Z,3.15
2022-07-30T12:46:14.879Z,3.03
2022-07-30T12:49:21.966Z,3.20
2022-07-30T12:51:58.381Z,3.10
2022-07-30T12:54:28.702Z,3.10
2022-07-30T12:57:03.564Z,3.10
2022-07-30T12:59:33.684Z,3.67
2022-07-30T13:02:02.417Z,4.03
2022-07-30T13:04:32.826Z,3.30
2022-07-30T13:07:05.671Z,3.35
2022-07-30T13:09:33.605Z,3.47
2022-07-30T13:12:03.091Z,3.58
2022-07-30T13:14:30.949Z,3.10
2022-07-30T13:16:59.813Z,2.80
2022-07-30T13:19:28.073Z,3.83
2022-07-30T13:21:55.704Z,3.28
2022-07-30T13:24:23.438Z,3.05
2022-07-30T13:26:51.194Z,3.00
2022-07-30T13:29:20.641Z,3.15
2022-07-30T13:31:48.397Z,3.00
2022-07-30T13:34:16.069Z,3.38
2022-07-30T13:36:43.721Z,3.20
2022-07-30T13:39:12.052Z,3.38
2022-07-30T13:41:41.608Z,3.53
2022-07-30T13:44:09.355Z,3.45
2022-07-30T13:46:41.076Z,3.80
2022-07-30T13:49:09.256Z,3.38
2022-07-30T13:51:37.019Z,3.78
2022-07-30T13:54:05.089Z,4.20
2022-07-30T13:56:32.684Z,3.20
2022-07-30T13:59:00.636Z,3.30
2022-07-30T14:01:28.414Z,3.65
2022-07-30T14:03:57.534Z,3.22
2022-07-30T14:06:25.294Z,3.88
2022-07-30T14:08:52.969Z,3.53
2022-07-30T14:11:20.632Z,3.42
2022-07-30T14:13:48.411Z,4.18
2022-07-30T14:16:42.288Z,4.03
2022-07-30T14:19:06.389Z,3.55
2022-07-30T14:21:34.527Z,3.28
2022-07-30T14:24:02.282Z,3.17
2022-07-30T14:26:36.276Z,3.42
2022-07-30T14:29:05.062Z,3.35
2022-07-30T14:31:32.757Z,3.30
2022-07-30T14:34:00.650Z,3.00
2022-07-30T14:36:30.116Z,3.00
2022-07-30T14:38:58.847Z,2.83
2022-07-30T14:41:28.214Z,3.30
2022-07-30T14:43:55.946Z,2.78
2022-07-30T14:46:24.182Z,2.55
2022-07-30T14:48:51.946Z,3.03
2022-07-30T14:51:25.852Z,2.63
2022-07-30T14:53:55.885Z,2.40
2022-07-30T14:56:25.203Z,2.90
2022-07-30T14:58:54.158Z,2.90
2022-07-30T15:01:21.822Z,2.47
2022-07-30T15:03:49.637Z,2.95
2022-07-30T15:06:17.550Z,2.83
2022-07-30T15:08:45.990Z,3.08
2022-07-30T15:11:15.267Z,3.28
2022-07-30T15:13:49.967Z,3.90
2022-07-30T15:16:18.575Z,3.47
2022-07-30T15:18:46.646Z,3.80
2022-07-30T15:21:14.690Z,3.50
2022-07-30T15:23:42.623Z,3.65
2022-07-30T15:26:10.737Z,3.25
2022-07-30T15:28:39.772Z,3.20
2022-07-30T15:31:07.814Z,4.28
2022-07-30T15:33:37.275Z,2.67
2022-07-30T15:36:05.571Z,3.10
2022-07-30T15:38:33.526Z,3.05
2022-07-30T15:41:01.653Z,2.78
2022-07-30T15:43:29.512Z,2.58
2022-07-30T15:45:58.553Z,2.50
2022-07-30T15:48:27.202Z,2.72
2022-07-30T15:51:01.554Z,2.53
2022-07-30T15:53:29.789Z,2.60
2022-07-30T15:55:57.637Z,2.17
2022-07-30T15:58:25.447Z,2.58
2022-07-30T16:00:53.175Z,2.08
2022-07-30T16:03:22.717Z,2.90
2022-07-30T16:05:52.037Z,2.85
2022-07-30T16:08:20.612Z,2.58
2022-07-30T16:10:48.446Z,2.83
2022-07-30T16:13:16.554Z,2.85
2022-07-30T16:15:44.914Z,2.53
2022-07-30T16:18:12.830Z,2.75
2022-07-30T16:20:41.888Z,3.08
2022-07-30T16:23:13.293Z,2.58
2022-07-30T16:25:42.735Z,2.47
2022-07-30T16:28:10.396Z,2.60
2022-07-30T16:30:49.048Z,3.55
2022-07-30T16:33:20.042Z,2.95
2022-07-30T16:35:51.168Z,2.60
2022-07-30T16:38:19.553Z,2.80
2022-07-30T16:40:47.628Z,3.00
2022-07-30T16:43:16.445Z,2.17
2022-07-30T16:45:47.340Z,2.58
2022-07-30T16:48:15.186Z,3.10
2022-07-30T16:50:43.472Z,2.70
2022-07-30T16:53:14.486Z,3.03
2022-07-30T16:55:42.694Z,3.22
2022-07-30T16:58:10.832Z,2.90
2022-07-30T17:00:38.746Z,3.40
2022-07-30T17:03:06.805Z,3.30
2022-07-30T17:05:34.540Z,3.13
2022-07-30T17:08:02.531Z,3.65
2022-07-30T17:10:31.519Z,5.32
2022-07-30T17:12:59.138Z,3.50
2022-07-30T17:15:32.794Z,3.65
2022-07-30T17:18:00.882Z,3.90
2022-07-30T17:20:28.680Z,3.70
2022-07-30T17:22:56.442Z,3.40
2022-07-30T17:25:27.158Z,4.18
2022-07-30T17:27:56.720Z,4.00
2022-07-30T17:30:24.854Z,3.88
2022-07-30T17:32:52.612Z,4.60
2022-07-30T17:35:20.446Z,3.85
2022-07-30T17:37:48.222Z,4.97
2022-07-30T17:40:30.721Z,3.67
2022-07-30T17:43:04.518Z,4.00
2022-07-30T17:45:34.174Z,4.00
2022-07-30T17:48:02.313Z,3.83
2022-07-30T17:50:30.233Z,3.75
2022-07-30T17:52:58.112Z,4.07
2022-07-30T17:55:27.955Z,4.15
2022-07-30T17:57:55.674Z,3.80
2022-07-30T18:00:24.775Z,4.85
2022-07-30T18:02:52.378Z,4.05
2022-07-30T18:05:20.137Z,4.15
2022-07-30T18:07:48.158Z,3.85
2022-07-30T18:10:15.822Z,4.57
2022-07-30T18:12:48.468Z,4.18
2022-07-30T18:15:16.878Z,4.00
2022-07-30T18:17:46.333Z,3.92
2022-07-30T18:20:15.147Z,4.20
2022-07-30T18:22:43.342Z,4.05
2022-07-30T18:25:18.615Z,5.30
2022-07-30T18:27:47.112Z,4.45
2022-07-30T18:30:15.247Z,3.47
2022-07-30T18:32:42.940Z,3.72
2022-07-30T18:35:14.857Z,3.80
2022-07-30T18:37:43.013Z,3.40
2022-07-30T18:40:12.048Z,3.15
2022-07-30T18:42:39.668Z,3.75
2022-07-30T18:45:08.327Z,15.18
2022-07-30T18:47:36.101Z,3.83
2022-07-30T18:50:03.991Z,3.78
2022-07-30T18:52:35.463Z,3.67
2022-07-30T18:55:03.279Z,3.33
2022-07-30T18:57:32.469Z,3.88
2022-07-30T19:00:00.272Z,3.53
2022-07-30T19:02:28.101Z,3.47
2022-07-30T19:04:58.354Z,3.95
2022-07-30T19:07:26.151Z,3.83
2022-07-30T19:09:58.083Z,4.10
2022-07-30T19:12:27.382Z,3.70
2022-07-30T19:15:01.024Z,3.67
2022-07-30T19:17:45.322Z,3.60
2022-07-30T19:20:17.226Z,3.40
2022-07-30T19:22:46.736Z,3.70
2022-07-30T19:25:18.049Z,3.70
2022-07-30T19:27:50.995Z,3.40
2022-07-30T19:30:18.704Z,3.22
2022-07-30T19:32:46.423Z,3.90
2022-07-30T19:35:14.481Z,3.30
2022-07-30T19:37:42.746Z,2.90
2022-07-30T19:40:11.962Z,2.80
2022-07-30T19:42:42.402Z,2.95
2022-07-30T19:45:12.059Z,3.95
2022-07-30T19:47:42.304Z,2.97
2022-07-30T19:50:11.680Z,3.10
2022-07-30T19:52:40.590Z,3.35
2022-07-30T19:55:30.729Z,3.40
2022-07-30T19:58:16.282Z,3.33
2022-07-30T20:00:49.240Z,3.60
2022-07-30T20:03:26.180Z,3.80
2022-07-30T20:05:59.672Z,3.65
2022-07-30T20:08:28.089Z,4.05
2022-07-30T20:10:57.567Z,4.10
2022-07-30T20:13:44.643Z,4.20
2022-07-30T20:16:13.709Z,4.70
2022-07-30T20:18:43.033Z,4.40
2022-07-30T20:21:15.341Z,3.60
2022-07-30T20:23:44.378Z,4.18
2022-07-30T20:26:14.514Z,4.47
2022-07-30T20:28:47.955Z,4.47
2022-07-30T20:31:21.123Z,4.32
2022-07-30T20:33:50.207Z,4.75
2022-07-30T20:36:19.017Z,4.38
2022-07-30T20:38:47.139Z,4.55
2022-07-30T20:41:15.784Z,4.60
2022-07-30T20:43:51.593Z,4.82
2022-07-30T20:46:23.809Z,4.78
2022-07-30T20:48:52.116Z,5.70
2022-07-30T20:51:20.448Z,7.10
2022-07-30T20:53:49.376Z,7.18
2022-07-30T20:56:19.440Z,9.05
2022-07-30T20:58:49.605Z,9.30
2022-07-30T21:01:18.191Z,9.57
2022-07-30T21:03:47.621Z,10.25
2022-07-30T21:06:16.674Z,11.20
2022-07-30T21:08:44.687Z,11.75
2022-07-30T21:11:13.102Z,12.20
2022-07-30T21:13:42.951Z,12.60
2022-07-30T21:16:16.412Z,12.68
2022-07-30T21:18:49.929Z,13.65
2022-07-30T21:21:30.690Z,12.55
2022-07-30T21:24:11.813Z,12.88
2022-07-30T21:26:46.437Z,13.57
2022-07-30T21:29:19.737Z,15.35
2022-07-30T21:32:02.350Z,14.43
2022-07-30T21:34:35.858Z,13.57
2022-07-30T21:37:09.139Z,14.48
2022-07-30T21:39:39.584Z,13.85
2022-07-30T21:42:08.846Z,13.32
2022-07-30T21:44:37.698Z,12.48
2022-07-30T21:47:10.269Z,14.05
2022-07-30T21:49:39.352Z,13.85
2022-07-30T21:52:08.401Z,12.43
2022-07-30T21:54:48.195Z,14.23
2022-07-30T21:57:26.421Z,13.95
2022-07-30T22:00:01.575Z,14.48
2022-07-30T22:02:52.866Z,14.35
2022-07-30T22:05:23.480Z,15.13
2022-07-30T22:08:12.747Z,14.98
2022-07-30T22:10:41.991Z,14.23
2022-07-30T22:13:10.757Z,13.90
2022-07-30T22:15:40.797Z,15.20
2022-07-30T22:18:10.604Z,13.57
2022-07-30T22:20:38.795Z,12.98
2022-07-30T22:23:07.310Z,13.98
2022-07-30T22:25:43.824Z,14.32
2022-07-30T22:28:12.857Z,14.88
2022-07-30T22:30:41.418Z,15.73
2022-07-30T22:33:13.132Z,14.18
2022-07-30T22:35:41.254Z,13.90
2022-07-30T22:38:15.155Z,13.95
2022-07-30T22:40:43.765Z,13.52
2022-07-30T22:43:13.899Z,14.60
2022-07-30T22:45:48.343Z,13.02
2022-07-30T22:48:27.095Z,13.75
2022-07-30T22:50:59.350Z,13.32
2022-07-30T22:54:10.746Z,12.60
2022-07-30T22:56:20.195Z,11.90
2022-07-30T22:58:52.039Z,12.18
2022-07-30T23:01:19.765Z,10.88
2022-07-30T23:03:52.556Z,10.00
2022-07-30T23:06:22.111Z,11.45
2022-07-30T23:08:50.821Z,10.07
2022-07-30T23:11:18.954Z,10.07
2022-07-30T23:13:49.051Z,10.80
2022-07-30T23:16:19.323Z,10.25
2022-07-30T23:18:47.229Z,9.35
2022-07-30T23:21:16.593Z,9.32
2022-07-30T23:23:46.185Z,9.63
2022-07-30T23:26:14.334Z,10.32
2022-07-30T23:28:42.603Z,9.95
2022-07-30T23:31:12.274Z,10.23
2022-07-30T23:33:40.416Z,10.02
2022-07-30T23:36:09.412Z,11.27
2022-07-30T23:38:38.477Z,10.25
2022-07-30T23:41:08.777Z,7.80
2022-07-30T23:43:37.042Z,9.93
2022-07-30T23:46:04.947Z,9.57
2022-07-30T23:48:37.578Z,8.80
2022-07-30T23:51:05.137Z,9.68
2022-07-30T23:53:32.858Z,8.55
2022-07-30T23:56:03.466Z,8.93
2022-07-30T23:58:31.302Z,9.32
